createdAt,value
2022-09-05T00:00:03.442Z,1020.56
2022-09-05T00:05:03.216Z,1020.62
2022-09-05T00:10:03.393Z,1020.88
2022-09-05T00:15:15.607Z,1021.15
2022-09-05T00:22:10.878Z,1021.12
2022-09-05T00:31:06.391Z,1021.14
2022-09-05T00:35:03.167Z,1021.24
2022-09-05T00:40:05.497Z,1021.52
2022-09-05T00:45:03.123Z,1021.4
2022-09-05T00:50:03.347Z,1021.48
2022-09-05T00:55:03.179Z,1021.64
2022-09-05T01:00:03.226Z,1021.69
2022-09-05T01:05:08.224Z,1021.72
2022-09-05T01:10:03.370Z,1021.59
2022-09-05T01:15:03.150Z,1021.41
2022-09-05T01:20:04.643Z,1021.56
2022-09-05T01:25:03.345Z,1021.36
2022-09-05T01:30:03.262Z,1021.32
2022-09-05T01:35:03.217Z,1021.31
2022-09-05T01:40:12.646Z,1021.32
2022-09-05T01:45:03.259Z,1021.81
2022-09-05T01:50:03.168Z,1021.85
2022-09-05T01:55:03.125Z,1021.94
2022-09-05T02:00:03.296Z,1021.94
2022-09-05T02:05:03.180Z,1021.93
2022-09-05T02:10:05.103Z,1021.96
2022-09-05T02:15:03.100Z,1021.9
2022-09-05T02:20:03.545Z,1021.92
2022-09-05T02:25:24.820Z,1021.96
2022-09-05T02:30:03.277Z,1022.14
2022-09-05T02:35:03.220Z,1022.18
2022-09-05T02:44:31.169Z,1022.09
2022-09-05T02:45:23.588Z,1022.0
2022-09-05T02:50:28.265Z,1021.88
2022-09-05T02:57:31.386Z,1021.85
2022-09-05T03:00:03.298Z,1021.86
2022-09-05T03:05:04.916Z,1021.88
2022-09-05T03:10:03.330Z,1022.08
2022-09-05T03:15:03.243Z,1021.94
2022-09-05T03:20:03.214Z,1022.01
2022-09-05T03:25:03.357Z,1022.06
2022-09-05T03:30:03.220Z,1021.95
2022-09-05T03:35:07.803Z,1021.7
2022-09-05T03:40:15.548Z,1021.69
2022-09-05T03:45:03.300Z,1021.75
2022-09-05T03:50:57.730Z,1021.69
2022-09-05T03:57:09.660Z,1021.54
2022-09-05T04:00:04.077Z,1021.33
2022-09-05T04:08:06.056Z,1021.2
2022-09-05T04:10:03.472Z,1021.37
2022-09-05T04:15:03.243Z,1021.4
2022-09-05T04:20:08.266Z,1021.33
2022-09-05T04:25:03.105Z,1021.25
2022-09-05T04:30:06.617Z,1021.17
2022-09-05T04:35:03.105Z,1020.87
2022-09-05T04:40:03.365Z,1020.76
2022-09-05T04:45:03.241Z,1020.76
2022-09-05T04:50:03.259Z,1020.76
2022-09-05T04:55:03.017Z,1020.78
2022-09-05T05:01:18.728Z,1020.67
2022-09-05T05:06:07.465Z,1020.74
2022-09-05T05:10:30.348Z,1020.67
2022-09-05T05:18:05.745Z,1020.65
2022-09-05T05:20:40.811Z,1020.55
2022-09-05T05:25:03.238Z,1020.63
2022-09-05T05:30:03.193Z,1020.54
2022-09-05T05:35:03.154Z,1020.5
2022-09-05T05:40:03.343Z,1020.45
2022-09-05T05:45:03.200Z,1020.4
2022-09-05T05:50:03.307Z,1020.46
2022-09-05T05:55:07.339Z,1020.56
2022-09-05T06:00:03.207Z,1020.59
2022-09-05T06:05:04.090Z,1020.74
2022-09-05T06:14:53.699Z,1020.64
2022-09-05T06:15:10.103Z,1020.6
2022-09-05T06:20:16.441Z,1020.6
2022-09-05T06:25:07.661Z,1020.64
2022-09-05T06:30:03.221Z,1020.6
2022-09-05T06:35:03.227Z,1020.41
2022-09-05T06:40:03.343Z,1020.17
2022-09-05T06:45:10.676Z,1020.07
2022-09-05T06:50:04.372Z,1019.74
2022-09-05T06:55:03.081Z,1019.5
2022-09-05T07:00:03.172Z,1019.51
2022-09-05T07:05:24.998Z,1019.91
2022-09-05T07:10:12.288Z,1020.39
2022-09-05T07:15:08.215Z,1020.45
2022-09-05T07:20:03.295Z,1020.64
2022-09-05T07:25:03.006Z,1020.45
2022-09-05T07:30:03.153Z,1020.46
2022-09-05T07:35:03.155Z,1020.5
2022-09-05T07:40:03.973Z,1020.32
2022-09-05T07:45:03.190Z,1020.28
2022-09-05T07:51:07.723Z,1020.43
2022-09-05T07:56:57.705Z,1020.63
2022-09-05T08:00:03.125Z,1020.82
2022-09-05T08:05:03.135Z,1020.84
2022-09-05T08:10:05.654Z,1020.89
2022-09-05T08:15:03.761Z,1021.1
2022-09-05T08:20:07.930Z,1021.21
2022-09-05T08:25:03.227Z,1021.46
2022-09-05T08:30:25.509Z,1021.79
2022-09-05T08:35:03.133Z,1021.88
2022-09-05T08:40:10.391Z,1021.89
2022-09-05T08:46:38.171Z,1021.83
2022-09-05T08:50:04.363Z,1022.01
2022-09-05T08:55:06.991Z,1022.19
2022-09-05T09:00:19.988Z,1022.14
2022-09-05T09:05:03.266Z,1021.95
2022-09-05T09:10:03.472Z,1021.82
2022-09-05T09:15:03.234Z,1021.82
2022-09-05T09:20:03.323Z,1021.91
2022-09-05T09:25:14.643Z,1021.89
2022-09-05T09:30:03.090Z,1021.77
2022-09-05T09:35:05.481Z,1021.83
2022-09-05T09:40:03.317Z,1022.03
2022-09-05T09:45:21.545Z,1022.06
2022-09-05T09:50:03.448Z,1022.1
2022-09-05T09:55:03.212Z,1021.97
2022-09-05T10:00:03.079Z,1021.84
2022-09-05T10:07:38.208Z,1021.99
2022-09-05T10:10:41.176Z,1022.04
2022-09-05T10:15:20.999Z,1022.26
2022-09-05T10:20:08.423Z,1022.54
2022-09-05T10:25:13.740Z,1022.84
2022-09-05T10:30:03.438Z,1022.94
2022-09-05T10:35:20.495Z,1023.07
2022-09-05T10:40:03.281Z,1023.14
2022-09-05T10:45:03.243Z,1023.05
2022-09-05T10:50:03.413Z,1022.93
2022-09-05T10:55:13.701Z,1022.78
2022-09-05T11:00:52.143Z,1022.33
2022-09-05T11:05:03.734Z,1022.09
2022-09-05T11:10:03.181Z,1022.37
2022-09-05T11:15:03.159Z,1022.39
2022-09-05T11:20:03.425Z,1022.48
2022-09-05T11:25:03.174Z,1022.44
2022-09-05T11:30:03.333Z,1022.49
2022-09-05T11:39:31.133Z,1022.62
2022-09-05T11:40:26.814Z,1022.9
2022-09-05T11:45:03.177Z,1022.96
2022-09-05T11:50:03.568Z,1023.21
2022-09-05T11:55:03.178Z,1023.51
2022-09-05T12:05:48.182Z,1023.59
2022-09-05T12:10:03.184Z,1023.63
2022-09-05T12:15:04.270Z,1023.67
2022-09-05T12:20:03.291Z,1023.87
2022-09-05T12:25:15.709Z,1024.09
2022-09-05T12:30:03.679Z,1024.07
2022-09-05T12:36:09.073Z,1024.1
2022-09-05T12:40:46.346Z,1024.03
2022-09-05T12:40:58.647Z,1023.68
2022-09-05T12:45:03.438Z,1023.76
2022-09-05T12:50:14.181Z,1023.63
2022-09-05T12:55:03.184Z,1023.69
2022-09-05T13:03:00.598Z,1023.78
2022-09-05T13:05:03.574Z,1023.69
2022-09-05T13:11:28.185Z,1023.6
2022-09-05T13:15:18.480Z,1023.8
2022-09-05T13:20:03.225Z,1023.8
2022-09-05T13:25:03.190Z,1023.76
2022-09-05T13:30:45.539Z,1023.7
2022-09-05T13:38:09.411Z,1023.52
2022-09-05T13:40:03.340Z,1023.58
2022-09-05T13:45:03.110Z,1023.77
2022-09-05T13:50:05.279Z,1023.73
2022-09-05T13:55:03.205Z,1023.95
2022-09-05T14:00:03.286Z,1024.23
2022-09-05T14:05:06.352Z,1023.72
2022-09-05T14:10:03.143Z,1023.45
2022-09-05T14:15:08.625Z,1022.78
2022-09-05T14:20:03.263Z,1022.55
2022-09-05T14:25:03.539Z,1022.75
2022-09-05T14:30:38.472Z,1022.97
2022-09-05T14:37:47.449Z,1023.1
2022-09-05T14:40:29.385Z,1023.24
2022-09-05T14:45:03.089Z,1023.18
2022-09-05T14:50:03.856Z,1023.0
2022-09-05T15:01:44.673Z,1022.21
2022-09-05T15:05:11.025Z,1022.1
2022-09-05T15:11:26.164Z,1021.95
2022-09-05T15:15:03.158Z,1021.7
2022-09-05T15:20:05.940Z,1021.84
2022-09-05T15:25:06.477Z,1022.05
2022-09-05T15:30:03.363Z,1022.43
2022-09-05T15:35:03.256Z,1022.4
2022-09-05T15:40:03.230Z,1022.1
2022-09-05T15:45:11.019Z,1021.92
2022-09-05T15:50:03.248Z,1021.92
2022-09-05T15:55:03.219Z,1022.31
2022-09-05T16:00:03.302Z,1022.27
2022-09-05T16:07:20.950Z,1022.39
2022-09-05T16:10:32.702Z,1022.46
2022-09-05T16:15:16.267Z,1022.46
2022-09-05T16:23:21.821Z,1022.44
2022-09-05T16:25:03.171Z,1022.48
2022-09-05T16:30:03.346Z,1022.44
2022-09-05T16:35:03.211Z,1022.35
2022-09-05T16:40:04.554Z,1022.28
2022-09-05T16:45:03.058Z,1022.27
2022-09-05T16:50:03.303Z,1022.32
2022-09-05T16:55:03.259Z,1022.39
2022-09-05T17:00:03.229Z,1022.47
2022-09-05T17:05:05.673Z,1022.44
2022-09-05T17:10:03.425Z,1022.46
2022-09-05T17:15:03.291Z,1022.44
2022-09-05T17:20:06.647Z,1022.38
2022-09-05T17:29:15.171Z,1022.36
2022-09-05T17:31:10.767Z,1022.25
2022-09-05T17:35:16.448Z,1022.17
2022-09-05T17:40:03.407Z,1022.21
2022-09-05T17:45:03.077Z,1022.24
2022-09-05T17:50:03.221Z,1022.11
2022-09-05T17:55:03.268Z,1022.08
2022-09-05T18:00:05.733Z,1022.11
2022-09-05T18:05:03.192Z,1022.22
2022-09-05T18:10:13.158Z,1022.14
2022-09-05T18:15:04.597Z,1022.16
2022-09-05T18:20:06.350Z,1022.22
2022-09-05T18:25:15.641Z,1022.23
2022-09-05T18:30:03.229Z,1022.3
2022-09-05T18:35:03.184Z,1022.29
2022-09-05T18:40:03.376Z,1022.35
2022-09-05T18:45:03.071Z,1022.33
2022-09-05T18:50:22.542Z,1022.27
2022-09-05T18:55:30.194Z,1022.31
2022-09-05T19:00:03.344Z,1022.34
2022-09-05T19:05:03.232Z,1022.29
2022-09-05T19:10:07.925Z,1022.41
2022-09-05T19:15:06.824Z,1022.38
2022-09-05T19:20:05.049Z,1022.38
2022-09-05T19:25:03.153Z,1022.49
2022-09-05T19:37:01.986Z,1022.47
2022-09-05T19:37:02.111Z,1022.52
2022-09-05T19:42:42.075Z,1022.6
2022-09-05T19:47:55.061Z,1022.45
2022-09-05T19:50:03.253Z,1022.23
2022-09-05T19:55:03.168Z,1022.43
2022-09-05T20:00:03.178Z,1022.47
2022-09-05T20:05:03.238Z,1022.54
2022-09-05T20:10:03.360Z,1022.6
2022-09-05T20:15:03.273Z,1022.64
2022-09-05T20:20:03.244Z,1022.84
2022-09-05T20:25:03.104Z,1022.9
2022-09-05T20:30:03.294Z,1022.93
2022-09-05T20:35:42.126Z,1022.94
2022-09-05T20:43:12.834Z,1022.96
2022-09-05T20:45:03.347Z,1023.01
2022-09-05T20:54:10.809Z,1023.01
2022-09-05T20:55:16.011Z,1022.93
2022-09-05T21:00:03.267Z,1023.06
2022-09-05T21:05:06.643Z,1023.11
2022-09-05T21:10:03.294Z,1023.06
2022-09-05T21:15:03.220Z,1023.41
2022-09-05T21:20:06.183Z,1023.59
2022-09-05T21:25:03.367Z,1023.52
2022-09-05T21:30:03.339Z,1023.77
2022-09-05T21:35:03.110Z,1023.98
2022-09-05T21:40:03.328Z,1023.76
2022-09-05T21:47:37.285Z,1023.71
2022-09-05T21:50:03.457Z,1023.54
2022-09-05T21:57:23.231Z,1023.86
2022-09-05T22:00:07.033Z,1023.84
2022-09-05T22:05:03.575Z,1023.99
2022-09-05T22:10:08.362Z,1024.31
2022-09-05T22:15:10.187Z,1024.23
2022-09-05T22:20:03.139Z,1023.87
2022-09-05T22:25:03.085Z,1023.89
2022-09-05T22:30:03.293Z,1024.03
2022-09-05T22:35:16.107Z,1023.69
2022-09-05T22:40:03.297Z,1023.77
2022-09-05T22:45:03.370Z,1024.04
2022-09-05T22:50:03.416Z,1023.61
2022-09-05T22:55:03.158Z,1023.46
2022-09-05T23:00:03.211Z,1023.44
2022-09-05T23:05:03.152Z,1023.26
2022-09-05T23:10:03.248Z,1023.25
2022-09-05T23:15:03.209Z,1023.27
2022-09-05T23:20:03.405Z,1023.31
2022-09-05T23:25:03.086Z,1023.28
2022-09-05T23:30:03.186Z,1023.31
2022-09-05T23:35:03.246Z,1023.31
2022-09-05T23:40:03.645Z,1023.44
2022-09-05T23:45:04.267Z,1023.34
2022-09-05T23:50:03.337Z,1023.13
2022-09-05T23:55:03.092Z,1022.89
